Latest Weather Observations for Ballina

IDN60801

Issued at 11:32 am EST Thursday 30 July 2015 (issued every 30 minutes, with the page automatically refreshed every 10 minutes)

About weather observations | Map of weather stations | Latest weather observations for NSW | Other Formats
Station Details ID: 058198 Name: BALLINA AIRPORT AWS Lat: -28.84 Lon: 153.56 Height: 1.3 m
Data from the previous 72 hours. | See also: Recent months at Ballina
Date/Time
EST
Temp
°C
App
Temp
°C
Dew
Point
Rel
Hum
%
Delta-T
°C
Wind Press
QNH
hPa
Press
MSL
hPa
Rain
since 9 am
mm
Dir
 
Spd
km/h
Gust
km/h
Spd
kts
Gust
kts
30/11:30am 19.1 18.7 13.1 68 3.4 SSW 7 13 4 7 1027.1 1027.1 0.0
30/11:00am 18.4 17.6 11.7 65 3.7 W 7 9 4 5 1027.7 1027.7 0.0
30/10:30am 17.7 16.4 11.3 66 3.5 W 9 13 5 7 1028.1 1028.1 0.0
30/10:00am 16.5 14.2 10.6 68 3.1 WNW 13 17 7 9 1028.6 1028.6 0.0
30/09:30am 16.0 13.9 11.2 73 2.6 W 13 19 7 10 1028.7 1028.7 0.0
30/09:00am 14.6 13.4 11.6 82 1.6 W 9 17 5 9 1028.8 1028.8 1.6
30/08:30am 12.8 11.4 10.9 88 1.0 W 9 11 5 6 1028.7 1028.7 1.6
30/08:00am 12.8 10.9 10.5 86 1.2 W 11 17 6 9 1028.4 1028.4 1.6
30/07:30am 11.8 10.4 11.0 95 0.4 WNW 9 13 5 7 1028.1 1028.1 1.6
30/07:00am 10.4 9.0 9.6 95 0.4 W 7 11 4 6 1027.8 1027.8 1.6
30/06:30am 10.5 9.1 9.7 95 0.4 WNW 7 9 4 5 1027.6 1027.6 1.6
30/06:00am 11.1 9.9 10.3 95 0.4 W 7 9 4 5 1027.5 1027.5 1.6
30/05:30am 11.5 10.0 10.7 95 0.4 W 9 13 5 7 1027.4 1027.4 1.6
30/05:00am 12.0 10.7 11.2 95 0.4 W 9 11 5 6 1027.6 1027.6 1.6
30/04:30am 12.2 11.0 11.6 96 0.3 W 9 11 5 6 1027.7 1027.7 1.6
30/04:00am 12.3 11.4 11.5 95 0.4 WSW 7 9 4 5 1027.6 1027.6 1.6
30/03:30am 12.4 10.9 11.8 96 0.3 W 11 17 6 9 1027.9 1027.9 1.6
30/03:00am 12.6 10.4 12.0 96 0.3 W 15 19 8 10 1027.8 1027.8 1.6
30/02:30am 12.8 11.7 12.0 95 0.4 W 9 13 5 7 1028.4 1028.4 1.4
30/02:11am 12.8 11.8 12.2 96 0.3 W 9 11 5 6 1028.5 1028.5 1.4
30/02:00am 12.9 12.3 12.3 96 0.3 NW 7 11 4 6 1028.6 1028.6 1.4
30/01:53am 12.9 12.5 12.3 96 0.3 NW 6 7 3 4 1028.4 1028.4 1.4
30/01:30am 12.5 13.0 11.6 94 0.5 CALM 0 2 0 1 1028.8 1028.8 1.4
30/01:00am 12.7 11.6 11.9 95 0.4 W 9 11 5 6 1028.9 1028.9 1.4
30/12:30am 12.7 10.8 11.8 94 0.5 W 13 15 7 8 1029.1 1029.1 1.4
30/12:00am 13.2 11.8 12.1 93 0.6 WSW 11 13 6 7 1029.1 1029.1 1.4
 
Date/Time
EST
Temp
°C
App
Temp
°C
Dew
Point
Rel
Hum
%
Delta-T
°C
Wind Press
QNH
hPa
Press
MSL
hPa
Rain
since 9 am
mm
Dir
 
Spd
km/h
Gust
km/h
Spd
kts
Gust
kts
29/11:56pm 13.3 12.3 12.4 94 0.5 SW 9 13 5 7 1029.3 1029.3 1.4
29/11:33pm 13.5 12.3 12.7 95 0.4 SW 11 15 6 8 1029.7 1029.7 1.2
29/11:30pm 13.6 12.4 12.8 95 0.4 SW 11 15 6 8 1029.8 1029.8 1.0
29/11:00pm 13.7 12.9 12.9 95 0.4 W 9 11 5 6 1029.9 1029.9 1.0
29/10:30pm 13.8 13.0 12.9 94 0.5 WSW 9 13 5 7 1029.8 1029.8 1.0
29/10:16pm 14.1 12.6 13.0 93 0.6 WSW 13 17 7 9 1029.8 1029.8 1.0
29/10:00pm 14.4 13.0 13.3 93 0.6 SW 13 19 7 10 1030.0 1030.0 1.0
29/09:46pm 14.5 14.0 12.7 89 1.0 S 7 15 4 8 1030.1 1030.1 0.4
29/09:30pm 14.5 13.0 12.0 85 1.4 WSW 11 15 6 8 1029.7 1029.7 0.0
29/09:00pm 14.6 13.0 11.7 83 1.5 SW 11 17 6 9 1029.8 1029.8 0.0
29/08:30pm 14.8 13.0 12.1 84 1.5 WSW 13 17 7 9 1029.8 1029.8 0.0
29/08:00pm 15.0 13.2 12.1 83 1.6 SW 13 19 7 10 1029.9 1029.9 0.0
29/07:30pm 15.0 13.6 12.1 83 1.6 SW 11 17 6 9 1030.0 1030.0 0.0
29/07:00pm 15.5 13.4 11.3 76 2.2 WSW 13 17 7 9 1029.7 1029.7 0.0
29/06:30pm 15.9 13.7 10.9 72 2.7 WSW 13 17 7 9 1029.5 1029.5 0.0
29/06:00pm 16.1 13.9 10.8 71 2.8 SW 13 17 7 9 1029.2 1029.2 0.0
29/05:30pm 16.7 14.6 11.0 69 3.1 SSW 13 20 7 11 1029.0 1029.0 0.0
29/05:00pm 16.9 13.9 10.7 67 3.3 SSW 17 20 9 11 1029.0 1029.0 0.0
29/04:30pm 17.0 14.0 9.4 61 4.0 S 15 22 8 12 1028.7 1028.7 0.0
29/04:00pm 17.4 14.7 9.1 58 4.3 SSW 13 20 7 11 1028.8 1028.8 0.0
29/03:30pm 17.8 14.3 8.6 55 4.7 S 17 24 9 13 1028.7 1028.7 0.0
29/03:00pm 18.7 14.7 8.9 53 5.1 S 20 28 11 15 1028.9 1028.9 0.0
29/02:30pm 18.1 13.2 8.4 53 5.0 S 24 32 13 17 1029.0 1029.0 0.0
29/02:00pm 18.6 14.8 9.1 54 4.9 S 19 28 10 15 1029.0 1029.0 0.0
29/01:30pm 19.0 15.6 7.8 48 5.7 SW 15 22 8 12 1029.4 1029.4 0.0
29/01:00pm 18.4 13.9 6.9 47 5.7 WSW 20 26 11 14 1029.9 1029.9 0.0
29/12:30pm 18.3 13.7 5.5 43 6.2 WSW 19 28 10 15 1030.6 1030.6 0.0
29/12:00pm 17.8 12.9 5.1 43 6.1 SW 20 30 11 16 1031.0 1031.0 0.0
29/11:30am 17.7 13.1 6.3 47 5.6 SSW 20 26 11 14 1031.4 1031.4 0.0
29/11:00am 17.0 12.3 5.3 46 5.6 SW 19 26 10 14 1032.1 1032.1 0.0
29/10:30am 16.5 12.1 6.6 52 4.9 WSW 19 22 10 12 1032.5 1032.5 0.0
29/10:00am 15.1 10.3 5.6 53 4.5 WSW 20 26 11 14 1032.9 1032.9 0.0
29/09:30am 14.0 8.9 4.3 52 4.5 WSW 20 26 11 14 1033.2 1033.2 0.0
29/09:00am 13.5 9.2 5.4 58 3.8 WSW 17 22 9 12 1033.2 1033.2 0.0
29/08:30am 12.1 7.7 4.8 61 3.3 WSW 17 22 9 12 1033.0 1033.0 0.0
29/08:00am 10.7 6.3 4.6 66 2.7 W 17 20 9 11 1032.7 1032.7 0.0
29/07:30am 8.8 4.7 4.2 73 2.0 W 15 17 8 9 1032.8 1032.8 0.0
29/07:00am 7.2 2.9 3.4 77 1.6 W 15 17 8 9 1032.6 1032.6 0.0
29/06:30am 7.0 2.6 2.9 75 1.7 W 15 17 8 9 1032.2 1032.2 0.0
29/06:00am 7.7 3.4 3.0 72 2.0 WSW 15 19 8 10 1031.9 1031.9 0.0
29/05:30am 8.0 3.7 3.3 72 2.0 WSW 15 19 8 10 1031.5 1031.5 0.0
29/05:00am 7.7 3.5 3.6 75 1.7 WSW 15 19 8 10 1031.1 1031.1 0.0
29/04:30am 7.1 3.2 3.3 77 1.6 W 13 13 7 7 1030.9 1030.9 0.0
29/04:00am 7.3 3.8 3.5 77 1.6 W 11 11 6 6 1030.8 1030.8 0.0
29/03:30am 8.1 3.9 3.9 75 1.8 WSW 15 17 8 9 1030.8 1030.8 0.0
29/03:00am 8.1 4.3 4.1 76 1.7 W 13 17 7 9 1030.9 1030.9 0.0
29/02:30am 8.7 4.6 4.1 73 2.0 WSW 15 19 8 10 1030.9 1030.9 0.0
29/02:00am 8.8 4.7 4.2 73 2.0 WSW 15 17 8 9 1031.0 1031.0 0.0
29/01:30am 9.2 4.7 4.4 72 2.1 WSW 17 20 9 11 1030.9 1030.9 0.0
29/01:00am 9.1 5.4 4.5 73 2.0 WSW 13 17 7 9 1030.9 1030.9 0.0
29/12:30am 9.1 5.5 4.9 75 1.9 WSW 13 15 7 8 1031.1 1031.1 0.0
29/12:00am 7.1 4.2 4.8 85 1.0 W 9 11 5 6 1031.0 1031.0 0.0
 
Date/Time
EST
Temp
°C
App
Temp
°C
Dew
Point
Rel
Hum
%
Delta-T
°C
Wind Press
QNH
hPa
Press
MSL
hPa
Rain
since 9 am
mm
Dir
 
Spd
km/h
Gust
km/h
Spd
kts
Gust
kts
28/11:30pm 7.3 5.5 5.3 87 0.9 W 4 7 2 4 1031.1 1031.1 0.0
28/11:00pm 8.6 5.7 4.8 77 1.7 W 9 11 5 6 1031.2 1031.2 0.0
28/10:30pm 9.5 6.4 5.5 76 1.8 W 11 13 6 7 1031.2 1031.2 0.0
28/10:00pm 9.3 5.9 5.7 78 1.6 W 13 13 7 7 1031.1 1031.1 0.0
28/09:30pm 9.2 6.2 5.8 79 1.6 W 11 13 6 7 1031.3 1031.3 0.0
28/09:00pm 8.8 6.1 5.7 81 1.4 WSW 9 11 5 6 1031.3 1031.3 0.0
28/08:30pm 7.8 5.7 5.8 87 0.9 W 6 9 3 5 1031.3 1031.3 0.0
28/08:00pm 8.3 6.3 6.1 86 1.0 W 6 7 3 4 1031.3 1031.3 0.0
28/07:30pm 9.3 8.4 6.0 80 1.5 CALM 0 0 0 0 1031.1 1031.1 0.0
28/07:00pm 9.1 6.7 5.3 77 1.7 WSW 7 9 4 5 1030.9 1030.9 0.0
28/06:30pm 9.3 6.7 5.9 79 1.6 W 9 9 5 5 1030.6 1030.6 0.0
28/06:00pm 10.6 8.7 6.6 76 1.9 W 6 7 3 4 1030.3 1030.3 0.0
28/05:30pm 13.3 10.8 4.7 56 4.0 SW 7 11 4 6 1030.1 1030.1 0.0
28/05:00pm 14.7 11.7 4.1 49 4.8 SSW 9 17 5 9 1029.9 1029.9 0.0
28/04:30pm 15.5 11.2 3.0 43 5.6 SSW 15 20 8 11 1029.8 1029.8 0.0
28/04:00pm 16.2 11.1 3.3 42 5.9 SSW 19 24 10 13 1029.6 1029.6 0.0
28/03:30pm 16.5 11.4 3.2 41 6.1 S 19 30 10 16 1029.5 1029.5 0.0
28/03:00pm 16.7 11.7 3.4 41 6.1 SSW 19 26 10 14 1029.4 1029.4 0.0
28/02:30pm 17.1 12.6 4.1 42 6.1 S 17 24 9 13 1029.5 1029.5 0.0
28/02:00pm 17.2 12.8 4.9 44 5.8 SSW 17 26 9 14 1029.5 1029.5 0.0
28/01:30pm 17.1 12.6 4.4 43 6.0 S 17 24 9 13 1029.7 1029.7 0.0
28/01:00pm 17.7 13.3 7.4 51 5.1 SSW 20 28 11 15 1029.9 1029.9 0.0
28/12:30pm 17.1 12.5 6.6 50 5.2 S 20 26 11 14 1030.2 1030.2 0.0
28/12:00pm 17.0 12.1 7.1 52 4.9 SSW 22 30 12 16 1030.5 1030.5 0.0
28/11:30am 16.6 12.5 6.1 50 5.1 SW 17 22 9 12 1030.9 1030.9 0.0
28/11:00am 16.4 12.4 6.5 52 4.8 SSW 17 26 9 14 1031.2 1031.2 0.0
28/10:30am 15.5 11.2 5.4 51 4.8 SW 17 24 9 13 1031.5 1031.5 0.0
28/10:00am 14.7 9.9 4.4 50 4.7 SW 19 24 10 13 1031.6 1031.6 0.0
28/09:30am 14.1 9.6 4.4 52 4.5 WSW 17 24 9 13 1031.5 1031.5 0.0
28/09:00am 13.2 8.2 3.6 52 4.3 WSW 19 26 10 14 1031.2 1031.2 0.0
28/08:30am 12.0 7.3 3.3 55 3.8 WSW 17 20 9 11 1030.8 1030.8 0.0
28/08:00am 10.8 6.8 2.6 57 3.5 WSW 13 19 7 10 1030.5 1030.5 0.0
28/07:30am 9.4 5.6 3.8 68 2.4 W 13 17 7 9 1030.3 1030.3 0.0
28/07:00am 8.2 3.7 2.4 67 2.4 WSW 15 17 8 9 1030.0 1030.0 0.0
28/06:30am 7.9 3.8 2.2 67 2.4 WSW 13 17 7 9 1029.6 1029.6 0.0
28/06:00am 7.6 3.5 2.1 68 2.2 WSW 13 17 7 9 1029.2 1029.2 0.0
28/05:30am 7.4 3.4 2.7 72 2.0 W 13 15 7 8 1028.9 1028.9 0.0
28/05:00am 7.5 3.9 3.0 73 1.9 W 11 15 6 8 1028.6 1028.6 0.0
28/04:30am 7.8 3.8 3.1 72 2.0 W 13 17 7 9 1028.3 1028.3 0.0
28/04:00am 7.7 4.2 3.4 74 1.8 W 11 13 6 7 1028.0 1028.0 0.0
28/03:30am 8.7 6.2 3.5 70 2.2 W 6 7 3 4 1027.9 1027.9 0.0
28/03:00am 9.1 6.0 3.5 68 2.4 WSW 9 11 5 6 1027.7 1027.7 0.0
28/02:30am 9.7 6.3 4.1 68 2.5 WSW 11 13 6 7 1027.7 1027.7 0.0
28/02:00am 11.4 7.4 2.9 56 3.7 SW 13 19 7 10 1027.8 1027.8 0.0
28/01:30am 11.9 8.1 3.9 58 3.6 SW 13 20 7 11 1027.8 1027.8 0.0
28/01:00am 12.3 7.7 3.8 56 3.8 SW 17 24 9 13 1027.7 1027.7 0.0
28/12:30am 12.1 8.3 5.9 66 2.9 WSW 15 20 8 11 1027.5 1027.5 0.0
28/12:00am 13.2 10.0 8.3 72 2.4 SW 15 20 8 11 1027.3 1027.3 0.0
 
Date/Time
EST
Temp
°C
App
Temp
°C
Dew
Point
Rel
Hum
%
Delta-T
°C
Wind Press
QNH
hPa
Press
MSL
hPa
Rain
since 9 am
mm
Dir
 
Spd
km/h
Gust
km/h
Spd
kts
Gust
kts
27/11:30pm 15.4 12.1 8.2 62 3.6 SSW 15 22 8 12 1027.3 1027.3 0.0
27/11:00pm 15.9 12.9 7.7 58 4.1 S 13 19 7 10 1027.1 1027.1 0.0
27/10:30pm 16.4 13.1 7.9 57 4.3 SSE 15 22 8 12 1026.9 1026.9 0.0
27/10:00pm 16.4 13.1 8.1 58 4.2 SSE 15 19 8 10 1026.8 1026.8 0.0
27/09:30pm 16.2 13.1 8.7 61 3.8 SSE 15 22 8 12 1026.5 1026.5 0.0
27/09:00pm 16.0 13.4 9.4 65 3.4 SSE 13 20 7 11 1026.4 1026.4 0.0
27/08:30pm 15.1 12.6 10.9 76 2.2 SSE 15 19 8 10 1026.0 1026.0 0.0
27/08:00pm 12.7 13.0 10.8 88 1.0 CALM 0 0 0 0 1025.6 1025.6 0.0
27/07:30pm 12.3 10.8 10.7 90 0.8 WSW 9 11 5 6 1025.3 1025.3 0.0
27/07:00pm 12.1 11.2 10.8 92 0.7 S 6 7 3 4 1024.8 1024.8 0.0
27/06:30pm 12.5 11.6 10.7 89 0.9 SSE 6 7 3 4 1024.5 1024.5 0.0
27/06:00pm 13.8 14.2 11.1 84 1.4 CALM 0 0 0 0 1024.0 1024.0 0.0
27/05:30pm 15.1 14.0 10.1 72 2.6 SE 6 7 3 4 1023.7 1023.7 0.0
27/05:00pm 16.2 14.4 9.4 64 3.5 SE 9 13 5 7 1023.3 1023.3 0.0
27/04:30pm 17.3 15.1 9.5 60 4.1 SSE 11 15 6 8 1023.0 1023.0 0.0
27/04:00pm 17.8 14.6 8.6 55 4.7 SSE 15 19 8 10 1022.8 1022.8 0.0
27/03:30pm 18.0 14.7 8.0 52 5.1 SE 15 20 8 11 1022.6 1022.6 0.0
27/03:00pm 18.8 15.1 7.9 49 5.6 SSE 17 22 9 12 1022.3 1022.3 0.0
27/02:30pm 19.6 17.9 8.3 48 5.9 S 7 20 4 11 1022.3 1022.3 0.0
27/02:00pm 19.1 16.2 6.6 44 6.2 SW 11 17 6 9 1022.4 1022.4 0.0
27/01:30pm 19.4 16.4 7.5 46 6.1 SSW 13 17 7 9 1022.4 1022.4 0.0
27/01:00pm 19.3 14.8 4.3 37 7.1 SW 17 24 9 13 1022.6 1022.6 0.0
27/12:30pm 19.0 15.5 7.1 46 6.0 SW 15 22 8 12 1022.9 1022.9 0.0
27/12:00pm 19.0 16.4 9.5 54 5.0 SSW 13 20 7 11 1023.2 1023.2 0.0

Other Formats:

Comma delimited format used in spreadsheet applications
http://www.bom.gov.au/fwo/IDN60801/IDN60801.94596.axf

JavaScript Object Notation format (JSON) in row-major order
http://www.bom.gov.au/fwo/IDN60801/IDN60801.94596.json